createdAt,value
2023-01-09T12:38:47.865Z,49.57
2023-01-09T12:39:39.785Z,49.60
2023-01-09T12:40:17.314Z,49.35
2023-01-09T12:40:59.606Z,49.48
2023-01-09T12:42:14.826Z,49.26
2023-01-09T12:43:14.997Z,49.10
2023-01-09T12:43:53.747Z,49.11
2023-01-09T12:44:45.843Z,49.10
2023-01-09T12:45:26.960Z,48.87
2023-01-09T12:46:23.131Z,49.01
2023-01-09T12:47:19.548Z,48.76
2023-01-09T12:47:52.690Z,48.52
2023-01-09T12:48:43.842Z,48.72
2023-01-09T12:49:29.806Z,48.57
2023-01-09T12:50:15.643Z,48.28
2023-01-09T12:51:05.208Z,48.47
2023-01-09T12:51:43.045Z,48.45
2023-01-09T12:52:31.812Z,48.27
2023-01-09T12:53:17.375Z,48.20
2023-01-09T12:54:06.268Z,48.26
2023-01-09T12:54:49.325Z,47.96
2023-01-09T12:55:39.490Z,47.96
2023-01-09T12:56:25.283Z,48.00
2023-01-09T12:57:23.059Z,48.04
2023-01-09T12:57:58.906Z,47.84
2023-01-09T12:58:38.675Z,47.78
2023-01-09T12:59:33.090Z,47.70
2023-01-09T13:00:15.332Z,47.78
2023-01-09T13:00:50.979Z,47.66
2023-01-09T13:01:29.718Z,47.56
2023-01-09T13:02:23.813Z,47.61
2023-01-09T13:03:17.433Z,47.60
2023-01-09T13:04:21.948Z,47.49
2023-01-09T13:09:46.248Z,47.38
2023-01-09T13:14:53.745Z,47.62
2023-01-09T15:16:38.108Z,50.31
2023-01-09T15:21:40.067Z,53.41
2023-01-09T15:27:44.059Z,56.55
2023-01-09T15:34:05.187Z,60.23
2023-01-09T15:40:26.435Z,62.14
2023-01-09T15:46:47.408Z,63.40
2023-01-09T15:53:08.582Z,64.36
2023-01-09T15:58:38.558Z,64.68
2023-01-09T16:03:39.827Z,65.14
2023-01-09T16:08:49.593Z,65.46
2023-01-09T16:13:51.482Z,65.80
2023-01-09T16:18:54.585Z,65.98
2023-01-09T16:24:08.165Z,65.95
2023-01-09T16:29:34.920Z,66.48
2023-01-09T16:34:36.450Z,66.75
2023-01-09T16:39:38.037Z,66.99
2023-01-09T16:44:39.121Z,67.18
2023-01-09T16:49:40.517Z,67.48
2023-01-09T16:55:47.418Z,67.64
2023-01-09T17:02:47.990Z,67.92
2023-01-09T17:09:40.889Z,68.43
2023-01-09T17:16:44.272Z,68.76
2023-01-09T17:23:22.682Z,68.96
2023-01-09T17:30:17.573Z,68.81
2023-01-09T17:37:21.345Z,69.48
2023-01-09T17:44:24.284Z,69.97
2023-01-09T17:51:27.231Z,69.75
2023-01-09T17:58:28.927Z,69.98
2023-01-09T18:05:33.622Z,70.12
2023-01-09T18:12:18.218Z,70.46
2023-01-09T18:42:16.995Z,67.81
2023-01-09T18:49:23.025Z,68.47
2023-01-09T18:56:25.902Z,69.30
2023-01-09T19:03:28.916Z,69.74
2023-01-09T19:10:21.869Z,69.86
2023-01-09T19:17:07.884Z,70.22
2023-01-09T19:24:10.773Z,70.59
2023-01-09T19:31:13.728Z,70.37
2023-01-09T19:37:41.654Z,70.41
2023-01-09T19:44:44.442Z,70.59
2023-01-09T19:51:24.879Z,70.68
2023-01-09T19:57:45.916Z,70.81
2023-01-09T20:04:06.871Z,70.69
2023-01-09T20:10:28.030Z,70.81
2023-01-09T20:16:54.725Z,70.89
2023-01-09T20:23:16.817Z,70.92
2023-01-09T20:29:47.657Z,70.92
2023-01-09T20:36:51.485Z,70.85
2023-01-09T20:44:00.004Z,70.99
2023-01-09T20:50:42.695Z,71.07
2023-01-09T20:57:25.329Z,70.87
2023-01-09T21:04:07.946Z,70.78
2023-01-09T21:10:50.693Z,70.96
2023-01-09T21:17:35.194Z,71.15
2023-01-09T21:24:00.334Z,71.06
2023-01-09T21:30:06.521Z,71.08
2023-01-09T21:36:22.768Z,71.29
2023-01-09T21:43:05.388Z,71.49
2023-01-09T21:49:47.667Z,71.64
2023-01-09T21:56:30.188Z,71.52
2023-01-09T22:03:12.458Z,71.38
2023-01-09T22:09:54.777Z,71.46
2023-01-09T22:16:37.661Z,71.74
2023-01-09T22:23:20.396Z,71.75
2023-01-09T22:30:02.945Z,71.80
2023-01-09T22:36:46.669Z,72.03
2023-01-09T22:43:29.110Z,72.19
2023-01-09T22:50:11.806Z,72.02
2023-01-09T22:56:54.121Z,71.81
2023-01-09T23:03:36.336Z,71.92
2023-01-09T23:10:13.886Z,71.93
2023-01-09T23:16:56.724Z,72.08
2023-01-09T23:23:39.261Z,72.22
2023-01-09T23:30:21.563Z,72.31
2023-01-09T23:37:04.119Z,72.42
2023-01-09T23:43:46.592Z,72.46
2023-01-09T23:50:29.117Z,72.66
2023-01-09T23:57:11.567Z,72.71
